createdAt,value
2018-07-01T00:00:03.376Z,88.30
2018-07-01T00:02:32.231Z,89.20
2018-07-01T00:05:01.470Z,89.00
2018-07-01T00:07:30.214Z,88.50
2018-07-01T00:09:58.851Z,88.60
2018-07-01T00:12:27.583Z,90.00
2018-07-01T00:14:56.168Z,89.40
2018-07-01T00:17:24.798Z,89.40
2018-07-01T00:19:53.393Z,89.10
2018-07-01T00:22:22.217Z,89.70
2018-07-01T00:24:50.801Z,89.10
2018-07-01T00:27:19.759Z,90.10
2018-07-01T00:29:48.619Z,90.00
2018-07-01T00:32:17.004Z,89.30
2018-07-01T00:34:45.305Z,90.20
2018-07-01T00:37:13.617Z,90.50
2018-07-01T00:39:42.061Z,90.10
2018-07-01T00:42:10.611Z,90.10
2018-07-01T00:44:39.241Z,90.10
2018-07-01T00:47:07.537Z,90.30
2018-07-01T00:49:36.120Z,90.60
2018-07-01T00:54:33.384Z,90.40
2018-07-01T00:57:01.676Z,90.50
2018-07-01T00:59:29.997Z,90.80
2018-07-01T01:01:58.672Z,90.80
2018-07-01T01:04:27.132Z,90.90
2018-07-01T01:06:55.886Z,91.00
2018-07-01T01:09:24.754Z,91.10
2018-07-01T01:11:53.095Z,91.20
2018-07-01T01:14:22.005Z,91.00
2018-07-01T01:16:50.720Z,90.90
2018-07-01T01:19:19.432Z,91.60
2018-07-01T01:21:48.569Z,91.60
2018-07-01T01:24:16.852Z,91.30
2018-07-01T01:26:45.642Z,91.40
2018-07-01T01:31:42.079Z,91.90
2018-07-01T01:34:10.741Z,91.90
2018-07-01T01:36:40.832Z,91.80
2018-07-01T01:39:11.307Z,92.00
2018-07-01T01:41:46.196Z,91.90
2018-07-01T01:44:26.000Z,91.90
2018-07-01T01:47:07.348Z,92.10
2018-07-01T01:49:46.215Z,92.40
2018-07-01T01:52:18.948Z,92.70
2018-07-01T01:57:00.124Z,92.80
2018-07-01T01:59:34.406Z,92.40
2018-07-01T02:02:14.615Z,91.90
2018-07-01T02:05:04.539Z,92.30
2018-07-01T02:07:38.160Z,92.00
2018-07-01T02:10:06.684Z,92.00
2018-07-01T02:12:34.992Z,92.30
2018-07-01T02:15:07.690Z,92.40
2018-07-01T02:17:38.789Z,91.90
2018-07-01T02:20:07.932Z,91.70
2018-07-01T02:22:40.436Z,92.40
2018-07-01T02:25:12.775Z,92.20
2018-07-01T02:27:41.251Z,92.10
2018-07-01T02:30:10.061Z,92.50
2018-07-01T02:32:38.693Z,92.00
2018-07-01T02:35:07.103Z,92.40
2018-07-01T02:37:35.581Z,92.60
2018-07-01T02:40:04.846Z,92.50
2018-07-01T02:42:33.257Z,93.40
2018-07-01T02:45:02.013Z,93.10
2018-07-01T02:47:30.599Z,93.30
2018-07-01T02:49:59.220Z,93.10
2018-07-01T02:52:27.578Z,93.30
2018-07-01T02:54:55.868Z,93.70
2018-07-01T02:57:24.750Z,93.90
2018-07-01T02:59:53.882Z,93.70
2018-07-01T03:02:22.229Z,93.50
2018-07-01T03:04:50.780Z,93.70
2018-07-01T03:07:19.284Z,93.80
2018-07-01T03:09:47.635Z,93.50
2018-07-01T03:12:15.992Z,94.00
2018-07-01T03:14:44.600Z,93.80
2018-07-01T03:17:13.292Z,94.00
2018-07-01T03:19:41.691Z,94.30
2018-07-01T03:22:10.237Z,93.40
2018-07-01T03:27:07.204Z,93.20
2018-07-01T03:29:35.769Z,93.10
2018-07-01T03:32:04.670Z,93.10
2018-07-01T03:34:32.957Z,93.80
2018-07-01T03:37:01.469Z,93.20
2018-07-01T03:39:29.784Z,93.60
2018-07-01T03:41:58.480Z,94.00
2018-07-01T03:44:26.798Z,94.00
2018-07-01T03:46:55.481Z,94.10
2018-07-01T03:49:23.952Z,93.90
2018-07-01T03:51:52.256Z,94.00
2018-07-01T03:54:20.616Z,93.80
2018-07-01T03:56:49.237Z,94.30
2018-07-01T03:59:17.828Z,94.70
2018-07-01T04:01:46.708Z,94.60
2018-07-01T04:04:15.196Z,94.30
2018-07-01T04:06:43.936Z,94.30
2018-07-01T04:09:13.392Z,94.50
2018-07-01T04:11:42.052Z,95.00
2018-07-01T04:14:10.712Z,95.30
2018-07-01T04:16:39.559Z,94.90
2018-07-01T04:19:08.452Z,95.30
2018-07-01T04:21:37.019Z,95.20
2018-07-01T04:24:05.848Z,95.60
2018-07-01T04:26:34.152Z,95.90
2018-07-01T04:29:02.768Z,96.10
2018-07-01T04:31:32.015Z,96.10
2018-07-01T04:34:00.408Z,96.00
2018-07-01T04:36:29.128Z,96.00
2018-07-01T04:38:57.495Z,96.30
2018-07-01T04:41:25.783Z,96.00
2018-07-01T04:43:54.359Z,94.90
2018-07-01T04:46:22.947Z,95.00
2018-07-01T04:48:51.839Z,94.60
2018-07-01T04:51:20.161Z,95.00
2018-07-01T04:53:48.552Z,94.80
2018-07-01T04:56:16.977Z,94.70
2018-07-01T04:58:45.299Z,94.80
2018-07-01T05:01:14.267Z,94.40
2018-07-01T05:03:42.635Z,94.40
2018-07-01T05:06:10.941Z,94.90
2018-07-01T05:08:39.302Z,94.00
2018-07-01T05:11:08.233Z,94.40
2018-07-01T05:13:36.540Z,94.50
2018-07-01T05:16:05.493Z,93.80
2018-07-01T05:18:34.164Z,94.00
2018-07-01T05:21:02.560Z,94.00
2018-07-01T05:23:31.476Z,93.90
2018-07-01T05:26:00.099Z,94.50
2018-07-01T05:28:28.490Z,94.20
2018-07-01T05:30:57.124Z,93.80
2018-07-01T05:33:25.616Z,93.90
2018-07-01T05:35:54.513Z,93.70
2018-07-01T05:38:23.012Z,93.20
2018-07-01T05:40:51.600Z,92.80
2018-07-01T05:43:20.330Z,92.70
2018-07-01T05:45:49.552Z,93.40
2018-07-01T05:48:18.594Z,93.90
2018-07-01T05:50:47.242Z,93.50
2018-07-01T05:53:15.746Z,93.20
2018-07-01T05:55:46.191Z,92.60
2018-07-01T05:58:14.852Z,93.40
2018-07-01T06:00:43.927Z,93.20
2018-07-01T06:03:13.150Z,92.20
2018-07-01T06:05:41.856Z,92.50
2018-07-01T06:08:12.240Z,92.70
2018-07-01T06:10:40.804Z,92.60
2018-07-01T06:13:09.338Z,91.30
2018-07-01T06:15:38.064Z,92.20
2018-07-01T06:18:07.037Z,91.90
2018-07-01T06:20:35.536Z,91.10
2018-07-01T06:23:04.255Z,91.70
2018-07-01T06:25:32.760Z,91.20
2018-07-01T06:28:01.980Z,91.80
2018-07-01T06:30:31.470Z,90.60
2018-07-01T06:33:01.003Z,90.60
2018-07-01T06:35:29.621Z,91.50
2018-07-01T06:37:58.184Z,90.30
2018-07-01T06:40:27.242Z,90.80
2018-07-01T06:42:56.392Z,90.40
2018-07-01T06:45:25.460Z,91.40
2018-07-01T06:47:54.684Z,90.50
2018-07-01T06:50:23.319Z,90.50
2018-07-01T06:52:51.720Z,89.80
2018-07-01T06:55:20.465Z,88.70
2018-07-01T06:57:49.222Z,86.60
2018-07-01T07:00:17.821Z,90.20
2018-07-01T07:02:46.296Z,90.00
2018-07-01T07:05:15.876Z,86.20
2018-07-01T07:07:44.839Z,87.60
2018-07-01T07:10:13.462Z,87.30
2018-07-01T07:12:41.839Z,86.70
2018-07-01T07:15:10.335Z,86.90
2018-07-01T07:17:39.200Z,87.40
2018-07-01T07:20:07.749Z,86.10
2018-07-01T07:22:36.063Z,84.30
2018-07-01T07:25:04.669Z,81.70
2018-07-01T07:27:33.049Z,82.10
2018-07-01T07:30:01.695Z,84.20
2018-07-01T07:32:30.459Z,80.30
2018-07-01T07:34:58.845Z,79.70
2018-07-01T07:37:27.184Z,79.90
2018-07-01T07:39:55.844Z,79.40
2018-07-01T07:42:24.145Z,84.40
2018-07-01T07:44:52.927Z,81.00
2018-07-01T07:47:21.389Z,82.30
2018-07-01T07:49:50.344Z,78.80
2018-07-01T07:52:18.799Z,82.10
2018-07-01T07:54:47.588Z,80.20
2018-07-01T07:57:16.136Z,75.00
2018-07-01T07:59:45.033Z,75.00
2018-07-01T08:02:13.347Z,72.80
2018-07-01T08:04:42.316Z,77.60
2018-07-01T08:07:10.968Z,76.70
2018-07-01T08:09:39.729Z,77.00
2018-07-01T08:12:08.025Z,76.80
2018-07-01T08:14:36.620Z,77.80
2018-07-01T08:17:05.203Z,75.70
2018-07-01T08:19:33.741Z,74.60
2018-07-01T08:22:02.182Z,73.70
2018-07-01T08:24:30.611Z,74.40
2018-07-01T08:26:59.307Z,75.80
2018-07-01T08:29:27.701Z,75.20
2018-07-01T08:31:56.419Z,70.00
2018-07-01T08:34:25.031Z,76.00
2018-07-01T08:36:53.427Z,71.00
2018-07-01T08:39:24.925Z,74.50
2018-07-01T08:42:24.960Z,74.00
2018-07-01T08:44:54.688Z,75.70
2018-07-01T08:47:23.386Z,74.60
2018-07-01T08:49:51.980Z,78.40
2018-07-01T08:52:20.756Z,75.10
2018-07-01T08:54:49.231Z,72.50
2018-07-01T08:57:19.136Z,76.90
2018-07-01T08:59:48.133Z,73.70
2018-07-01T09:02:17.219Z,72.30
2018-07-01T09:04:46.100Z,71.00
2018-07-01T09:07:16.028Z,69.30
2018-07-01T09:09:44.644Z,72.00
2018-07-01T09:12:13.248Z,72.70
2018-07-01T09:14:43.011Z,74.10
2018-07-01T09:17:11.432Z,68.00
2018-07-01T09:19:40.240Z,69.40
2018-07-01T09:22:08.551Z,64.90
2018-07-01T09:24:37.229Z,64.50
2018-07-01T09:27:06.496Z,66.50
2018-07-01T09:29:37.836Z,61.30
2018-07-01T09:32:06.154Z,62.60
2018-07-01T09:34:34.510Z,59.00
2018-07-01T09:37:03.578Z,62.70
2018-07-01T09:39:32.031Z,62.00
2018-07-01T09:42:00.595Z,59.50
2018-07-01T09:44:29.144Z,56.90
2018-07-01T09:46:57.459Z,57.10
2018-07-01T09:49:25.922Z,59.10
2018-07-01T09:51:54.420Z,60.20
2018-07-01T09:54:22.720Z,56.60
2018-07-01T09:56:51.415Z,58.30
2018-07-01T09:59:19.724Z,55.80
2018-07-01T10:01:48.008Z,59.00
2018-07-01T10:04:16.440Z,58.10
2018-07-01T10:06:44.999Z,55.40
2018-07-01T10:09:13.444Z,55.40
2018-07-01T10:11:41.753Z,55.60
2018-07-01T10:14:10.425Z,57.50
2018-07-01T10:16:39.297Z,54.20
2018-07-01T10:19:08.039Z,53.40
2018-07-01T10:21:36.525Z,58.60
2018-07-01T10:26:33.622Z,56.50
2018-07-01T10:29:18.591Z,54.20
2018-07-01T10:31:47.251Z,53.10
2018-07-01T10:36:44.763Z,55.60
2018-07-01T10:39:15.661Z,54.90
2018-07-01T10:41:44.070Z,51.70
2018-07-01T10:44:12.402Z,50.10
2018-07-01T10:49:09.676Z,51.70
2018-07-01T10:51:38.542Z,52.20
2018-07-01T10:54:07.927Z,51.70
2018-07-01T10:56:36.236Z,47.70
2018-07-01T10:59:04.737Z,52.30
2018-07-01T11:01:33.701Z,49.50
2018-07-01T11:04:02.217Z,49.80
2018-07-01T11:06:30.509Z,49.70
2018-07-01T11:08:58.940Z,49.80
2018-07-01T11:11:27.588Z,51.00
2018-07-01T11:13:56.538Z,49.80
2018-07-01T11:16:26.042Z,48.00
2018-07-01T11:18:58.161Z,51.00
2018-07-01T11:21:26.789Z,48.20
2018-07-01T11:23:55.185Z,47.70
2018-07-01T11:26:23.624Z,46.80
2018-07-01T11:28:51.948Z,48.10
2018-07-01T11:31:20.944Z,47.20
2018-07-01T11:33:49.752Z,48.80
2018-07-01T11:36:18.540Z,48.50
2018-07-01T11:38:48.060Z,46.00
2018-07-01T11:41:17.474Z,46.60
2018-07-01T11:43:46.098Z,45.10
2018-07-01T11:46:14.873Z,44.10
2018-07-01T11:48:43.924Z,46.80
2018-07-01T11:51:12.552Z,47.30
2018-07-01T11:53:40.916Z,44.10
2018-07-01T11:56:09.380Z,46.40
2018-07-01T11:58:37.692Z,44.10
2018-07-01T12:01:06.236Z,46.20
2018-07-01T12:03:34.786Z,43.00
2018-07-01T12:06:03.620Z,41.50
2018-07-01T12:08:32.095Z,45.60
2018-07-01T12:11:00.656Z,45.30
2018-07-01T12:13:29.563Z,45.20
2018-07-01T12:15:58.216Z,41.00
2018-07-01T12:18:26.803Z,43.90
2018-07-01T12:20:55.138Z,42.90
2018-07-01T12:23:23.489Z,47.80
2018-07-01T12:25:52.272Z,42.60
2018-07-01T12:28:20.669Z,42.30
2018-07-01T12:30:49.366Z,42.60
2018-07-01T12:33:17.773Z,41.90
2018-07-01T12:35:46.411Z,44.00
2018-07-01T12:38:14.935Z,42.60
2018-07-01T12:40:43.659Z,42.50
2018-07-01T12:43:12.317Z,42.50
2018-07-01T12:45:40.636Z,43.70
2018-07-01T12:48:09.213Z,40.10
2018-07-01T12:50:37.505Z,42.60
2018-07-01T12:53:06.005Z,39.60
2018-07-01T12:55:35.208Z,42.80
2018-07-01T12:58:03.876Z,41.20
2018-07-01T13:00:32.241Z,42.60
2018-07-01T13:03:00.848Z,40.60
2018-07-01T13:05:29.790Z,38.10
2018-07-01T13:07:58.116Z,42.80
2018-07-01T13:10:26.664Z,39.90
2018-07-01T13:12:55.212Z,41.50
2018-07-01T13:15:23.708Z,41.70
2018-07-01T13:17:52.134Z,40.20
2018-07-01T13:20:20.778Z,42.80
2018-07-01T13:22:49.919Z,39.10
2018-07-01T13:25:18.930Z,39.30
2018-07-01T13:27:47.540Z,43.40
2018-07-01T13:30:16.120Z,41.00
2018-07-01T13:32:44.875Z,38.60
2018-07-01T13:35:13.879Z,40.20
2018-07-01T13:37:43.139Z,39.20
2018-07-01T13:40:11.588Z,39.20
2018-07-01T13:42:39.939Z,42.00
2018-07-01T13:45:09.518Z,40.00
2018-07-01T13:47:38.508Z,39.50
2018-07-01T13:50:07.349Z,40.60
2018-07-01T13:52:35.987Z,40.60
2018-07-01T13:55:04.932Z,38.50
2018-07-01T13:57:33.228Z,39.30
2018-07-01T14:00:01.579Z,37.20
2018-07-01T14:02:30.064Z,38.40
2018-07-01T14:04:58.383Z,39.40
2018-07-01T14:07:26.983Z,36.70
2018-07-01T14:09:55.265Z,35.20
2018-07-01T14:12:24.161Z,38.10
2018-07-01T14:17:21.395Z,39.10
2018-07-01T14:19:50.180Z,39.90
2018-07-01T14:22:19.191Z,37.50
2018-07-01T14:24:48.365Z,39.90
2018-07-01T14:27:16.814Z,35.60
2018-07-01T14:29:45.887Z,37.90
2018-07-01T14:32:14.328Z,37.20
2018-07-01T14:34:42.890Z,37.80
2018-07-01T14:37:11.335Z,36.60
2018-07-01T14:39:40.284Z,37.00
2018-07-01T14:42:08.957Z,38.60
2018-07-01T14:44:37.533Z,37.40
2018-07-01T14:47:06.895Z,37.70
2018-07-01T14:49:35.696Z,38.60
2018-07-01T14:52:04.665Z,37.10
2018-07-01T14:54:33.457Z,37.80
2018-07-01T14:59:31.121Z,39.10
2018-07-01T15:01:59.735Z,38.60
2018-07-01T15:04:28.125Z,40.60
2018-07-01T15:06:57.257Z,35.60
2018-07-01T15:09:25.966Z,36.90
2018-07-01T15:11:54.972Z,37.50
2018-07-01T15:14:23.536Z,36.50
2018-07-01T15:16:52.380Z,37.20
2018-07-01T15:19:20.744Z,36.20
2018-07-01T15:21:49.148Z,36.70
2018-07-01T15:24:17.806Z,35.70
2018-07-01T15:26:46.416Z,36.40
2018-07-01T15:31:44.315Z,38.20
2018-07-01T15:34:12.937Z,36.90
2018-07-01T15:36:41.674Z,35.80
2018-07-01T15:39:11.670Z,36.40
2018-07-01T15:41:40.389Z,38.50
2018-07-01T15:44:08.931Z,37.00
2018-07-01T15:46:38.152Z,37.40
2018-07-01T15:49:06.891Z,39.20
2018-07-01T15:51:40.432Z,37.60
2018-07-01T15:54:09.172Z,38.60
2018-07-01T15:56:37.954Z,34.20
2018-07-01T15:59:06.666Z,36.30
2018-07-01T16:01:34.972Z,37.70
2018-07-01T16:04:03.518Z,36.10
2018-07-01T16:06:31.823Z,35.40
2018-07-01T16:09:00.460Z,38.50
2018-07-01T16:11:29.743Z,37.50
2018-07-01T16:13:58.564Z,37.60
2018-07-01T16:16:26.966Z,37.70
2018-07-01T16:18:55.863Z,38.90
2018-07-01T16:21:24.912Z,38.10
2018-07-01T16:23:53.207Z,38.00
2018-07-01T16:26:26.960Z,39.50
2018-07-01T16:28:59.340Z,43.20
2018-07-01T16:31:28.820Z,44.00
2018-07-01T16:33:58.099Z,44.80
2018-07-01T16:36:27.207Z,46.00
2018-07-01T16:38:55.520Z,48.00
2018-07-01T16:43:53.310Z,48.70
2018-07-01T16:46:22.266Z,49.00
2018-07-01T16:48:50.828Z,48.70
2018-07-01T16:51:19.148Z,48.50
2018-07-01T16:53:47.746Z,49.10
2018-07-01T16:56:16.610Z,49.50
2018-07-01T16:58:45.425Z,48.10
2018-07-01T17:01:13.780Z,47.80
2018-07-01T17:03:42.089Z,49.10
2018-07-01T17:06:10.472Z,48.80
2018-07-01T17:08:39.029Z,49.20
2018-07-01T17:11:07.676Z,49.10
2018-07-01T17:13:36.031Z,49.00
2018-07-01T17:16:05.148Z,49.50
2018-07-01T17:18:33.504Z,49.00
2018-07-01T17:21:01.932Z,51.70
2018-07-01T17:23:30.512Z,50.90
2018-07-01T17:25:58.996Z,50.20
2018-07-01T17:28:27.507Z,52.70
2018-07-01T17:31:01.539Z,52.00
2018-07-01T17:33:31.433Z,51.80
2018-07-01T17:35:59.863Z,50.90
2018-07-01T17:38:28.228Z,51.10
2018-07-01T17:40:57.064Z,51.20
2018-07-01T17:43:25.652Z,50.80
2018-07-01T17:45:54.256Z,51.80
2018-07-01T17:48:23.501Z,52.00
2018-07-01T17:50:52.717Z,51.00
2018-07-01T17:53:32.508Z,52.10
2018-07-01T17:56:01.088Z,52.70
2018-07-01T17:58:29.652Z,53.10
2018-07-01T18:00:58.617Z,53.00
2018-07-01T18:03:26.910Z,53.90
2018-07-01T18:05:55.491Z,53.70
2018-07-01T18:08:23.924Z,52.60
2018-07-01T18:10:52.436Z,52.20
2018-07-01T18:13:20.737Z,52.90
2018-07-01T18:15:49.065Z,53.90
2018-07-01T18:18:17.719Z,54.00
2018-07-01T18:20:45.992Z,53.50
2018-07-01T18:23:44.886Z,53.10
2018-07-01T18:25:43.549Z,53.00
2018-07-01T18:28:22.704Z,53.90
2018-07-01T18:30:41.433Z,54.20
2018-07-01T18:33:10.129Z,54.80
2018-07-01T18:35:39.048Z,55.20
2018-07-01T18:40:36.549Z,55.30
2018-07-01T18:43:05.019Z,55.10
2018-07-01T18:45:33.582Z,55.60
2018-07-01T18:48:02.987Z,57.30
2018-07-01T18:50:31.804Z,58.20
2018-07-01T18:53:00.160Z,57.20
2018-07-01T18:55:28.562Z,57.10
2018-07-01T18:57:56.872Z,57.60
2018-07-01T19:00:25.628Z,58.20
2018-07-01T19:02:54.260Z,58.90
2018-07-01T19:05:22.954Z,60.90
2018-07-01T19:07:51.292Z,59.80
2018-07-01T19:10:19.783Z,60.00
2018-07-01T19:12:48.088Z,59.70
2018-07-01T19:15:22.644Z,61.40
2018-07-01T19:17:51.177Z,62.10
2018-07-01T19:20:19.473Z,61.70
2018-07-01T19:22:49.155Z,62.60
2018-07-01T19:25:17.803Z,63.20
2018-07-01T19:27:46.338Z,62.80
2018-07-01T19:30:15.577Z,63.10
2018-07-01T19:32:44.061Z,63.90
2018-07-01T19:35:13.007Z,63.60
2018-07-01T19:37:41.416Z,64.10
2018-07-01T19:40:10.652Z,63.70
2018-07-01T19:42:39.713Z,64.20
2018-07-01T19:45:08.665Z,64.60
2018-07-01T19:47:37.032Z,64.90
2018-07-01T19:50:06.860Z,65.90
2018-07-01T19:52:35.420Z,65.90
2018-07-01T19:55:03.893Z,65.60
2018-07-01T19:57:32.196Z,66.00
2018-07-01T20:00:01.024Z,66.90
2018-07-01T20:02:29.480Z,66.40
2018-07-01T20:04:57.774Z,68.60
2018-07-01T20:07:26.112Z,67.20
2018-07-01T20:09:54.455Z,68.20
2018-07-01T20:12:23.138Z,68.20
2018-07-01T20:14:51.887Z,67.10
2018-07-01T20:17:20.748Z,66.70
2018-07-01T20:19:52.308Z,67.60
2018-07-01T20:22:20.620Z,67.90
2018-07-01T20:24:49.001Z,68.20
2018-07-01T20:27:18.940Z,68.70
2018-07-01T20:29:47.333Z,67.80
2018-07-01T20:32:15.718Z,68.30
2018-07-01T20:34:44.316Z,68.30
2018-07-01T20:37:13.192Z,69.10
2018-07-01T20:39:41.751Z,69.00
2018-07-01T20:42:10.740Z,68.70
2018-07-01T20:44:39.089Z,69.60
2018-07-01T20:47:07.470Z,69.00
2018-07-01T20:49:36.049Z,68.90
2018-07-01T20:52:04.736Z,70.10
2018-07-01T20:54:33.571Z,69.10
2018-07-01T20:57:02.287Z,69.80
2018-07-01T20:59:30.743Z,70.50
2018-07-01T21:01:59.373Z,71.20
2018-07-01T21:04:27.773Z,71.40
2018-07-01T21:06:56.072Z,71.30
2018-07-01T21:09:24.585Z,71.20
2018-07-01T21:11:53.258Z,71.90
2018-07-01T21:14:21.840Z,71.80
2018-07-01T21:16:50.429Z,71.80
2018-07-01T21:19:18.820Z,71.60
2018-07-01T21:21:47.566Z,71.50
2018-07-01T21:24:16.065Z,72.00
2018-07-01T21:26:44.649Z,71.80
2018-07-01T21:29:13.112Z,71.80
2018-07-01T21:31:41.425Z,71.60
2018-07-01T21:34:09.773Z,72.10
2018-07-01T21:36:38.536Z,72.00
2018-07-01T21:39:09.793Z,73.50
2018-07-01T21:41:38.788Z,73.40
2018-07-01T21:44:08.497Z,73.60
2018-07-01T21:46:37.081Z,73.20
2018-07-01T21:49:05.969Z,73.60
2018-07-01T21:51:34.628Z,73.80
2018-07-01T21:54:03.648Z,73.50
2018-07-01T21:56:32.389Z,74.70
2018-07-01T21:59:01.276Z,75.00
2018-07-01T22:01:30.096Z,75.00
2018-07-01T22:03:58.850Z,74.80
2018-07-01T22:06:31.566Z,74.70
2018-07-01T22:09:00.049Z,76.70
2018-07-01T22:11:51.840Z,78.20
2018-07-01T22:14:31.388Z,76.60
2018-07-01T22:17:00.300Z,76.70
2018-07-01T22:19:29.255Z,78.40
2018-07-01T22:21:58.384Z,77.70
2018-07-01T22:24:28.264Z,78.70
2018-07-01T22:26:57.379Z,79.40
2018-07-01T22:29:26.145Z,79.30
2018-07-01T22:31:54.945Z,78.80
2018-07-01T22:34:24.176Z,78.90
2018-07-01T22:36:53.288Z,80.00
2018-07-01T22:39:23.407Z,80.10
2018-07-01T22:41:52.685Z,80.70
2018-07-01T22:44:21.322Z,81.40
2018-07-01T22:46:50.780Z,80.10
2018-07-01T22:49:19.727Z,80.70
2018-07-01T22:51:48.339Z,81.10
2018-07-01T22:54:17.402Z,81.40
2018-07-01T22:56:45.878Z,82.40
2018-07-01T22:59:15.127Z,82.40
2018-07-01T23:01:56.683Z,81.30
2018-07-01T23:04:25.656Z,82.70
2018-07-01T23:06:54.151Z,81.60
2018-07-01T23:09:22.921Z,82.30
2018-07-01T23:11:51.417Z,83.20
2018-07-01T23:14:19.985Z,81.70
2018-07-01T23:16:49.489Z,82.70
2018-07-01T23:19:18.295Z,81.80
2018-07-01T23:21:46.932Z,80.60
2018-07-01T23:24:15.672Z,80.60
2018-07-01T23:26:44.311Z,80.60
2018-07-01T23:29:12.786Z,81.90
2018-07-01T23:31:41.352Z,82.90
2018-07-01T23:34:09.995Z,83.30
2018-07-01T23:36:38.479Z,83.20
2018-07-01T23:39:07.855Z,81.10
2018-07-01T23:41:36.411Z,82.80
2018-07-01T23:44:05.826Z,82.60
2018-07-01T23:46:34.290Z,83.00
2018-07-01T23:49:02.929Z,83.90
2018-07-01T23:51:31.429Z,83.40
2018-07-01T23:54:00.035Z,83.60
2018-07-01T23:56:28.769Z,83.40
2018-07-01T23:58:57.443Z,83.70
